Time;durP1;ratioP1;P1;durP2;ratioP2;P2;SDS_P1;SDS_P2;PMS_P1;PMS_P2;Temp;Humidity;BMP_temperature;BMP_pressure;BME280_temperature;BME280_humidity;BME280_pressure;Samples;Min_cycle;Max_cycle;Signal;HPM_P1;HPM_P2
2021/05/05 00:01:53;;;;;;;4.20;1.63;;;;;;;3.78;67.50;98009.91;5022200;28;20483;-69
2021/05/05 00:04:21;;;;;;;6.95;1.88;;;;;;;3.75;67.20;98005.91;5019075;28;20049;-70
2021/05/05 00:06:47;;;;;;;5.65;1.92;;;;;;;3.74;67.29;98035.88;5023706;28;20083;-69
2021/05/05 00:09:14;;;;;;;4.87;1.70;;;;;;;3.64;67.25;98018.59;5000132;28;20425;-70
2021/05/05 00:11:41;;;;;;;3.67;1.52;;;;;;;3.72;67.06;98014.53;5027155;28;20300;-69
2021/05/05 00:14:10;;;;;;;4.32;1.67;;;;;;;3.65;66.84;98022.91;5023101;28;20462;-68
2021/05/05 00:16:36;;;;;;;5.10;1.67;;;;;;;3.69;67.00;98025.88;5021399;28;20057;-69
2021/05/05 00:19:03;;;;;;;5.40;1.65;;;;;;;3.73;66.99;98024.25;5035496;28;20568;-70
2021/05/05 00:21:29;;;;;;;5.78;1.65;;;;;;;3.77;66.83;98032.63;5022553;28;20045;-71
2021/05/05 00:23:55;;;;;;;7.00;1.75;;;;;;;3.88;66.38;98031.53;5022145;28;20096;-70
2021/05/05 00:26:21;;;;;;;4.68;1.75;;;;;;;3.87;66.31;98027.22;4992111;28;20046;-71
2021/05/05 00:28:47;;;;;;;4.18;1.55;;;;;;;3.76;66.86;98031.03;5012887;28;20038;-71
2021/05/05 00:31:15;;;;;;;4.50;1.45;;;;;;;3.75;66.98;98034.81;5021329;28;20049;-69
2021/05/05 00:33:41;;;;;;;8.32;2.58;;;;;;;3.74;66.62;98031.28;5020098;28;20391;-71
2021/05/05 00:36:07;;;;;;;9.07;2.10;;;;;;;3.80;66.61;98051.00;5019181;28;20530;-70
2021/05/05 00:38:33;;;;;;;8.88;2.40;;;;;;;3.77;66.76;98049.69;5017498;28;20131;-70
2021/05/05 00:40:59;;;;;;;3.47;1.30;;;;;;;3.76;66.85;98055.34;5020253;28;21447;-69
2021/05/05 00:43:25;;;;;;;9.07;1.65;;;;;;;3.72;66.71;98041.56;5021110;28;20517;-70
2021/05/05 00:45:51;;;;;;;4.95;1.67;;;;;;;3.73;66.72;98047.78;5017500;28;20045;-68
2021/05/05 00:48:18;;;;;;;4.53;1.70;;;;;;;3.78;66.72;98045.91;5029994;28;20034;-69
2021/05/05 00:50:44;;;;;;;4.18;1.30;;;;;;;3.68;66.34;98046.72;5016231;28;20494;-70
2021/05/05 00:53:11;;;;;;;7.78;2.00;;;;;;;3.79;66.37;98062.91;5014879;28;20072;-70
2021/05/05 00:55:37;;;;;;;5.00;1.70;;;;;;;3.72;66.16;98041.56;5018445;28;20046;-69
2021/05/05 00:58:03;;;;;;;5.60;1.85;;;;;;;3.91;65.93;98058.03;5006857;28;20686;-70
2021/05/05 01:00:32;;;;;;;6.78;1.88;;;;;;;3.87;66.09;98066.94;5017838;28;20114;-70
2021/05/05 01:02:58;;;;;;;5.25;1.42;;;;;;;3.92;65.63;98059.66;5026643;28;20053;-70
2021/05/05 01:05:25;;;;;;;5.22;1.50;;;;;;;3.82;65.36;98048.84;5023838;28;20073;-71
2021/05/05 01:07:52;;;;;;;4.40;1.50;;;;;;;3.70;65.48;98057.25;5022145;28;20054;-70
2021/05/05 01:10:20;;;;;;;5.28;1.80;;;;;;;3.62;65.49;98058.59;5016410;28;20064;-69
2021/05/05 01:12:46;;;;;;;5.63;1.50;;;;;;;3.63;65.55;98065.63;5021876;28;20095;-70
2021/05/05 01:15:16;;;;;;;4.40;1.88;;;;;;;3.51;65.45;98073.19;5000272;28;20137;-70
2021/05/05 01:17:42;;;;;;;3.65;1.30;;;;;;;3.52;65.54;98077.53;5020139;28;20057;-70
2021/05/05 01:20:09;;;;;;;2.13;1.08;;;;;;;3.51;65.72;98076.72;5023030;28;21396;-68
2021/05/05 01:22:37;;;;;;;5.18;1.23;;;;;;;3.52;65.74;98083.75;5021562;28;20192;-70
2021/05/05 01:25:05;;;;;;;3.58;1.60;;;;;;;3.49;65.80;98061.84;5028462;28;20054;-70
2021/05/05 01:27:31;;;;;;;4.68;1.48;;;;;;;3.44;66.21;98081.59;5021734;28;20061;-70
2021/05/05 01:29:58;;;;;;;6.72;1.77;;;;;;;3.48;66.17;98074.56;5018753;28;20128;-70
2021/05/05 01:32:25;;;;;;;9.57;2.22;;;;;;;3.66;66.10;98083.22;5018870;28;20137;-70
2021/05/05 01:34:52;;;;;;;4.97;1.77;;;;;;;3.61;65.96;98097.53;5023547;28;20132;-68
2021/05/05 01:37:18;;;;;;;3.65;1.42;;;;;;;3.65;66.22;98078.88;5027762;28;20097;-70
2021/05/05 01:39:46;;;;;;;3.85;1.60;;;;;;;3.71;65.96;98093.22;5032860;28;20048;-70
2021/05/05 01:42:12;;;;;;;4.13;1.67;;;;;;;3.76;65.58;98083.22;4984601;28;20049;-69
2021/05/05 01:44:40;;;;;;;5.38;1.55;;;;;;;3.75;65.67;98103.22;5023534;28;20045;-70
2021/05/05 01:47:11;;;;;;;6.75;1.35;;;;;;;3.74;65.86;98098.06;5017894;28;20107;-70
2021/05/05 01:49:42;;;;;;;3.33;1.23;;;;;;;3.59;65.86;98088.06;5024773;28;20037;-70
2021/05/05 01:52:09;;;;;;;8.93;1.90;;;;;;;3.64;65.97;98083.47;5021005;28;20045;-70
2021/05/05 01:54:36;;;;;;;3.80;1.42;;;;;;;3.58;66.13;98081.03;5019532;28;20045;-69
2021/05/05 01:57:24;;;;;;;3.85;1.60;;;;;;;3.70;65.86;98100.50;5038673;28;20072;-69
2021/05/05 01:59:55;;;;;;;6.07;2.00;;;;;;;3.80;65.71;98089.69;5027579;28;20513;-69
2021/05/05 02:02:22;;;;;;;5.65;1.90;;;;;;;3.66;66.11;98102.91;5031049;28;20049;-70
2021/05/05 02:04:48;;;;;;;6.07;1.50;;;;;;;3.65;66.03;98103.22;5027680;28;20048;-70
2021/05/05 02:07:32;;;;;;;4.82;1.67;;;;;;;3.71;65.67;98112.94;5033662;28;20050;-70
2021/05/05 02:09:59;;;;;;;12.65;2.38;;;;;;;3.61;66.09;98118.34;5017481;28;20096;-70
2021/05/05 02:12:28;;;;;;;8.15;1.70;;;;;;;3.52;66.35;98101.88;5018705;28;20042;-70
2021/05/05 02:14:55;;;;;;;4.63;1.60;;;;;;;3.75;65.87;98122.16;4999784;28;20065;-69
2021/05/05 02:17:21;;;;;;;6.30;1.48;;;;;;;3.64;65.86;98117.81;5034387;28;20049;-70
2021/05/05 02:19:48;;;;;;;5.07;1.60;;;;;;;3.63;65.97;98127.00;5027736;28;20041;-69
2021/05/05 02:22:14;;;;;;;5.25;1.65;;;;;;;3.71;65.85;98125.66;5032191;28;20124;-70
2021/05/05 02:24:41;;;;;;;6.60;1.45;;;;;;;3.72;65.68;98136.19;5017152;28;20144;-70
2021/05/05 02:27:08;;;;;;;3.88;1.42;;;;;;;3.65;65.97;98133.75;5010340;28;20045;-68
2021/05/05 02:29:36;;;;;;;7.78;1.60;;;;;;;3.45;66.02;98128.34;5031346;28;20053;-70
2021/05/05 02:32:14;;;;;;;;;;;;;;;3.72;65.97;98127.28;5019826;28;20046;-69
2021/05/05 02:34:41;;;;;;;5.30;1.30;;;;;;;3.60;66.01;98139.16;5023639;28;19929;-69
2021/05/05 02:37:09;;;;;;;6.57;1.63;;;;;;;3.63;65.91;98129.72;5011815;28;20045;-69
2021/05/05 02:39:37;;;;;;;4.18;1.60;;;;;;;3.91;65.18;98141.84;5026984;28;20045;-70
2021/05/05 02:42:04;;;;;;;5.18;1.40;;;;;;;3.65;65.35;98138.34;5017926;28;20064;-69
2021/05/05 02:44:31;;;;;;;4.65;1.67;;;;;;;3.70;65.71;98146.47;5033254;28;20290;-69
2021/05/05 02:46:59;;;;;;;2.70;1.20;;;;;;;3.63;65.91;98149.41;5012888;28;20387;-69
2021/05/05 02:49:25;;;;;;;4.68;1.63;;;;;;;3.76;65.25;98131.88;5051079;28;20392;-67
2021/05/05 02:51:51;;;;;;;2.58;1.10;;;;;;;3.61;65.55;98161.59;5019382;28;20588;-70
2021/05/05 02:54:17;;;;;;;4.40;1.55;;;;;;;3.84;65.04;98160.25;5014181;28;20041;-68
2021/05/05 02:56:44;;;;;;;8.65;1.50;;;;;;;3.81;65.40;98164.31;5014805;28;20133;-70
2021/05/05 02:59:10;;;;;;;3.72;1.40;;;;;;;3.76;65.34;98161.63;5035894;28;20056;-70
2021/05/05 03:01:36;;;;;;;7.47;2.70;;;;;;;3.95;64.52;98171.88;5025156;28;20053;-71
2021/05/05 03:04:04;;;;;;;7.90;2.10;;;;;;;3.82;64.33;98162.41;5021530;28;20045;-68
2021/05/05 03:06:30;;;;;;;;;;;;;;;3.87;64.67;98162.41;5030776;28;20045;-70
2021/05/05 03:08:57;;;;;;;3.60;1.65;;;;;;;3.90;64.52;98171.88;5022139;28;20274;-70
2021/05/05 03:11:23;;;;;;;5.00;1.88;;;;;;;3.94;64.20;98165.66;5027085;28;20033;-69
2021/05/05 03:13:49;;;;;;;5.45;1.73;;;;;;;3.81;64.56;98182.41;5025042;28;20128;-69
2021/05/05 03:16:15;;;;;;;19.15;2.40;;;;;;;3.83;64.54;98180.28;5023808;28;20400;-70
2021/05/05 03:18:41;;;;;;;8.43;2.60;;;;;;;3.99;64.38;98178.38;5024358;28;20049;-70
2021/05/05 03:21:08;;;;;;;6.25;1.80;;;;;;;4.01;63.96;98172.69;5027048;28;20046;-70
2021/05/05 03:23:34;;;;;;;4.70;1.77;;;;;;;4.09;63.62;98185.66;5023866;28;20053;-69
2021/05/05 03:26:00;;;;;;;7.07;1.77;;;;;;;3.99;63.22;98188.38;5023337;28;20053;-70
2021/05/05 03:28:27;;;;;;;6.95;1.90;;;;;;;4.13;62.95;98183.22;5016028;28;20537;-69
2021/05/05 03:30:53;;;;;;;4.30;1.45;;;;;;;3.85;63.38;98158.34;5022311;28;20045;-70
2021/05/05 03:33:19;;;;;;;3.85;1.48;;;;;;;3.95;62.99;98161.06;5016722;28;20057;-70
2021/05/05 03:35:45;;;;;;;4.05;1.40;;;;;;;3.99;63.15;98170.25;5011129;28;20073;-69
2021/05/05 03:38:12;;;;;;;5.70;1.60;;;;;;;4.09;63.00;98188.38;5020499;28;20056;-70
2021/05/05 03:40:38;;;;;;;7.55;2.38;;;;;;;3.97;63.22;98191.34;5027981;28;20410;-70
2021/05/05 03:43:04;;;;;;;4.57;1.58;;;;;;;3.94;63.26;98187.28;5025631;28;20053;-70
2021/05/05 03:45:31;;;;;;;6.55;1.92;;;;;;;4.06;63.02;98189.75;5024814;28;20347;-68
2021/05/05 03:47:57;;;;;;;7.88;2.60;;;;;;;4.23;62.56;98202.16;5026531;28;20545;-72
2021/05/05 03:50:24;;;;;;;10.45;3.08;;;;;;;4.34;62.52;98206.47;5024067;28;20046;-69
2021/05/05 03:52:50;;;;;;;7.70;2.47;;;;;;;4.40;62.30;98193.75;5028527;28;20111;-69
2021/05/05 03:55:19;;;;;;;5.28;1.88;;;;;;;4.36;62.60;98208.91;5009176;28;20049;-70
2021/05/05 03:57:46;;;;;;;15.85;2.20;;;;;;;4.14;62.93;98209.19;5021207;28;20099;-69
2021/05/05 04:00:13;;;;;;;5.82;1.90;;;;;;;4.28;62.26;98194.03;5021482;28;20046;-70
2021/05/05 04:02:46;;;;;;;8.63;2.75;;;;;;;4.54;62.02;98219.16;5018880;28;20192;-70
2021/05/05 04:05:13;;;;;;;13.07;4.43;;;;;;;4.47;62.36;98207.81;5026615;28;20037;-70
2021/05/05 04:07:40;;;;;;;8.15;2.35;;;;;;;4.36;61.95;98198.88;5022370;28;20143;-70
2021/05/05 04:10:08;;;;;;;5.97;2.10;;;;;;;4.29;62.07;98230.84;5021109;28;20060;-68
2021/05/05 04:12:35;;;;;;;9.85;2.88;;;;;;;4.21;62.67;98217.84;4992933;28;20045;-70
2021/05/05 04:15:02;;;;;;;10.40;3.05;;;;;;;4.47;62.40;98213.22;5017990;28;20053;-69
2021/05/05 04:17:29;;;;;;;7.68;2.10;;;;;;;4.35;62.16;98224.31;5023027;28;20132;-67
2021/05/05 04:19:56;;;;;;;8.63;2.13;;;;;;;4.66;61.59;98234.31;5039678;28;20048;-68
2021/05/05 04:22:23;;;;;;;8.38;1.90;;;;;;;4.81;61.19;98217.19;5031065;28;20053;-68
2021/05/05 04:24:50;;;;;;;5.95;1.95;;;;;;;5.03;60.83;98219.56;4996056;28;20084;-69
2021/05/05 04:27:16;;;;;;;4.15;1.55;;;;;;;5.01;60.77;98223.66;5020413;28;20088;-70
2021/05/05 04:29:44;;;;;;;7.05;2.05;;;;;;;4.94;60.08;98219.31;5030011;28;20051;-69
2021/05/05 04:32:11;;;;;;;5.55;1.58;;;;;;;4.78;60.32;98213.16;5027631;28;20041;-69
2021/05/05 04:34:38;;;;;;;4.13;1.58;;;;;;;4.65;61.27;98219.16;5027296;28;20050;-69
2021/05/05 04:37:06;;;;;;;4.10;1.50;;;;;;;4.60;60.87;98201.00;5019501;28;20041;-69
2021/05/05 04:39:32;;;;;;;3.75;1.40;;;;;;;4.57;60.28;98206.97;5029601;28;20578;-69
2021/05/05 04:41:58;;;;;;;3.85;1.60;;;;;;;4.75;60.03;98202.84;5029351;28;20060;-68
2021/05/05 04:44:24;;;;;;;2.95;1.33;;;;;;;4.59;60.08;98231.88;5028975;28;20074;-70
2021/05/05 04:46:51;;;;;;;4.28;1.70;;;;;;;4.55;60.54;98225.41;5022689;28;20555;-71
2021/05/05 04:49:17;;;;;;;5.93;2.25;;;;;;;4.95;60.29;98225.56;5039282;28;20143;-67
2021/05/05 04:51:43;;;;;;;5.45;1.60;;;;;;;5.01;60.15;98223.66;5022263;28;20129;-67
2021/05/05 04:54:10;;;;;;;3.58;1.30;;;;;;;5.04;59.58;98231.22;5018342;28;20453;-68
2021/05/05 04:56:36;;;;;;;9.50;1.75;;;;;;;5.25;59.37;98232.75;5016165;28;20461;-69
2021/05/05 04:59:03;;;;;;;4.75;1.65;;;;;;;5.37;59.04;98227.00;5044652;28;20055;-68
2021/05/05 05:01:29;;;;;;;23.10;2.00;;;;;;;5.53;58.79;98225.03;5033479;28;20463;-68
2021/05/05 05:03:56;;;;;;;8.00;1.88;;;;;;;5.71;58.63;98232.78;5035176;28;20073;-66
2021/05/05 05:06:22;;;;;;;4.38;1.58;;;;;;;5.71;57.84;98249.88;5018000;28;20069;-69
2021/05/05 05:08:49;;;;;;;5.43;1.65;;;;;;;5.70;57.88;98240.09;5021578;28;20049;-66
2021/05/05 05:11:15;;;;;;;4.90;1.40;;;;;;;5.71;57.78;98247.16;5020134;28;20069;-71
2021/05/05 05:13:41;;;;;;;3.38;1.27;;;;;;;5.65;57.19;98238.22;5020313;28;20060;-71
2021/05/05 05:16:08;;;;;;;2.97;1.50;;;;;;;5.71;57.44;98217.31;5022700;28;20042;-68
2021/05/05 05:18:34;;;;;;;4.97;1.60;;;;;;;5.64;57.65;98235.81;5017898;28;20072;-69
2021/05/05 05:21:03;;;;;;;5.30;1.90;;;;;;;5.86;57.32;98240.00;5021850;28;20045;-69
2021/05/05 05:23:29;;;;;;;8.18;2.75;;;;;;;5.95;56.86;98230.19;5014375;28;20050;-68
2021/05/05 05:25:57;;;;;;;5.10;1.80;;;;;;;5.90;57.00;98246.47;5018099;28;20481;-66
2021/05/05 05:28:23;;;;;;;7.88;2.47;;;;;;;6.03;56.50;98248.59;5015650;28;20072;-67
2021/05/05 05:30:49;;;;;;;5.00;1.80;;;;;;;6.09;56.33;98230.38;5030211;28;20041;-67
2021/05/05 05:33:15;;;;;;;5.78;1.90;;;;;;;6.20;55.62;98233.81;5000017;28;20120;-69
2021/05/05 05:35:41;;;;;;;7.28;1.92;;;;;;;6.42;55.74;98236.06;5028143;28;20079;-69
2021/05/05 05:38:08;;;;;;;4.88;1.67;;;;;;;6.46;55.78;98233.59;5026773;28;20072;-70
2021/05/05 05:40:34;;;;;;;7.63;1.90;;;;;;;6.51;55.09;98225.41;5028304;28;20053;-67
2021/05/05 05:43:01;;;;;;;9.07;1.88;;;;;;;6.57;54.23;98237.03;5026787;28;20168;-69
2021/05/05 05:45:28;;;;;;;4.55;1.63;;;;;;;6.84;54.18;98239.19;5030822;28;20057;-69
2021/05/05 05:47:55;;;;;;;3.45;1.45;;;;;;;6.78;53.46;98243.84;5031668;28;20153;-69
2021/05/05 05:50:21;;;;;;;4.25;1.50;;;;;;;6.66;53.20;98249.69;5031749;28;20498;-70
2021/05/05 05:52:48;;;;;;;6.65;1.33;;;;;;;6.62;53.63;98245.94;5009736;28;20046;-68
2021/05/05 05:55:17;;;;;;;7.63;1.75;;;;;;;6.84;53.52;98236.47;5027195;28;20853;-69
2021/05/05 05:57:43;;;;;;;5.43;1.60;;;;;;;6.87;53.27;98233.19;5032841;28;20531;-68
2021/05/05 06:00:13;;;;;;;6.95;2.10;;;;;;;6.78;53.72;98246.56;5022064;28;20660;-67
2021/05/05 06:02:40;;;;;;;5.88;1.77;;;;;;;7.02;53.23;98247.69;5031114;28;20425;-70
2021/05/05 06:05:08;;;;;;;7.70;2.67;;;;;;;7.29;53.12;98235.41;5015021;28;20115;-68
2021/05/05 06:07:34;;;;;;;7.68;1.77;;;;;;;7.44;52.71;98269.78;5018258;28;20518;-69
2021/05/05 06:10:00;;;;;;;20.70;2.50;;;;;;;7.45;52.54;98252.34;5026000;28;20060;-68
2021/05/05 06:12:27;;;;;;;9.57;2.15;;;;;;;7.59;51.71;98255.97;5038307;28;20057;-70
2021/05/05 06:14:55;;;;;;;6.72;1.80;;;;;;;7.57;50.70;98260.91;5037223;28;20406;-68
2021/05/05 06:17:24;;;;;;;6.05;1.90;;;;;;;7.41;50.71;98237.69;5040677;28;20052;-68
2021/05/05 06:19:50;;;;;;;5.00;1.45;;;;;;;7.45;49.84;98293.94;5030993;28;20057;-67
2021/05/05 06:22:16;;;;;;;3.92;1.50;;;;;;;7.21;50.14;98242.31;5020042;28;20049;-66
2021/05/05 06:24:44;;;;;;;5.97;1.70;;;;;;;7.38;49.91;98252.72;5018532;28;20049;-66
2021/05/05 06:27:10;;;;;;;4.82;1.50;;;;;;;7.51;49.88;98275.66;5039259;28;20045;-65
2021/05/05 06:29:36;;;;;;;3.58;1.52;;;;;;;7.42;50.19;98258.38;5024123;28;20426;-68
2021/05/05 06:32:03;;;;;;;8.07;1.83;;;;;;;7.75;49.16;98281.03;5013549;28;20042;-67
2021/05/05 06:34:31;;;;;;;6.22;1.67;;;;;;;7.44;48.75;98294.25;5024706;28;20125;-70
2021/05/05 06:36:57;;;;;;;4.60;1.65;;;;;;;7.51;49.59;98289.25;5019174;28;20115;-68
2021/05/05 06:39:23;;;;;;;4.72;1.65;;;;;;;7.91;49.36;98278.09;5022296;28;20045;-67
2021/05/05 06:41:49;;;;;;;4.47;1.75;;;;;;;8.23;49.63;98282.81;5017137;28;20049;-67
2021/05/05 06:44:15;;;;;;;6.82;2.08;;;;;;;8.08;48.79;98278.38;5019510;28;20047;-69
2021/05/05 06:46:42;;;;;;;3.72;1.50;;;;;;;7.63;47.82;98286.09;5027840;28;20502;-67
2021/05/05 06:49:09;;;;;;;7.38;1.50;;;;;;;7.83;48.65;98298.63;5035295;28;20054;-65
2021/05/05 06:51:36;;;;;;;;;;;;;;;7.92;47.67;98279.72;5017875;28;20054;-67
2021/05/05 06:54:03;;;;;;;9.85;1.80;;;;;;;8.04;46.59;98293.72;5012048;28;19929;-66
2021/05/05 06:56:29;;;;;;;6.32;1.60;;;;;;;8.16;47.60;98284.28;5016428;28;20135;-66
2021/05/05 06:58:55;;;;;;;8.82;1.90;;;;;;;8.18;47.50;98280.16;5018112;28;20052;-66
2021/05/05 07:01:21;;;;;;;4.65;1.67;;;;;;;8.48;47.25;98277.25;5025012;28;20045;-68
2021/05/05 07:03:48;;;;;;;8.15;2.03;;;;;;;8.75;46.90;98281.19;5026042;28;20099;-68
2021/05/05 07:06:14;;;;;;;5.18;1.70;;;;;;;8.84;46.85;98267.66;5024738;28;20057;-67
2021/05/05 07:08:41;;;;;;;6.53;2.05;;;;;;;8.97;46.82;98283.22;5024525;28;20045;-66
2021/05/05 07:11:08;;;;;;;14.77;2.20;;;;;;;9.07;46.05;98274.84;5015509;28;20049;-67
2021/05/05 07:13:34;;;;;;;7.43;1.95;;;;;;;9.15;45.49;98286.97;5020442;28;20053;-67
2021/05/05 07:16:00;;;;;;;7.38;2.25;;;;;;;8.75;44.25;98281.19;5013170;28;20255;-67
2021/05/05 07:18:27;;;;;;;15.15;2.50;;;;;;;8.91;44.67;98290.69;5020001;28;20128;-66
2021/05/05 07:20:56;;;;;;;6.57;1.88;;;;;;;8.63;44.81;98279.72;5015240;28;20420;-67
2021/05/05 07:23:22;;;;;;;8.27;2.17;;;;;;;8.76;44.55;98274.63;5011202;28;20085;-64
2021/05/05 07:25:48;;;;;;;8.77;1.80;;;;;;;8.87;45.05;98295.13;5012723;28;20048;-66
2021/05/05 07:28:14;;;;;;;19.27;2.47;;;;;;;8.61;45.45;98303.75;5035456;28;20132;-67
2021/05/05 07:30:40;;;;;;;5.20;1.75;;;;;;;8.72;45.32;98293.47;5021518;28;20470;-65
2021/05/05 07:33:07;;;;;;;9.70;1.83;;;;;;;8.67;45.05;98317.28;5012750;28;20131;-64
2021/05/05 07:35:33;;;;;;;13.55;1.92;;;;;;;8.78;45.38;98300.44;5016269;28;20060;-66
2021/05/05 07:48:34;;;;;;;6.93;1.90;;;;;;;10.05;44.48;98301.22;5006613;28;20049;-66
2021/05/05 07:51:01;;;;;;;6.57;1.60;;;;;;;10.05;44.38;98312.13;5008705;28;20056;-66
2021/05/05 07:53:28;;;;;;;7.25;2.00;;;;;;;10.30;43.99;98302.56;5014717;28;20037;-68
2021/05/05 07:55:56;;;;;;;9.15;2.17;;;;;;;10.65;43.29;98293.81;5017013;28;21180;-69
2021/05/05 07:58:22;;;;;;;5.00;1.80;;;;;;;10.13;44.02;98311.41;5016949;28;20363;-67
2021/05/05 08:00:48;;;;;;;7.28;2.08;;;;;;;10.06;43.77;98297.34;5019808;28;20041;-68
2021/05/05 08:03:15;;;;;;;8.25;2.13;;;;;;;9.80;44.56;98322.50;5021490;28;20045;-71
2021/05/05 08:05:41;;;;;;;5.05;2.10;;;;;;;9.68;44.33;98342.16;5022708;28;20069;-70
2021/05/05 08:08:08;;;;;;;8.77;2.22;;;;;;;9.37;44.40;98310.03;5014704;28;20045;-67
2021/05/05 08:10:36;;;;;;;5.85;2.00;;;;;;;9.49;44.57;98323.94;5017135;28;20061;-68
2021/05/05 08:13:02;;;;;;;6.57;2.00;;;;;;;9.75;44.12;98300.78;5021122;28;20483;-68
2021/05/05 08:15:33;;;;;;;6.63;2.20;;;;;;;9.38;44.65;98286.25;5019593;28;20056;-68
2021/05/05 08:17:59;;;;;;;9.43;2.20;;;;;;;9.86;44.21;98301.38;5021715;28;20075;-69
2021/05/05 08:20:26;;;;;;;5.60;1.98;;;;;;;9.58;43.52;98301.41;5019633;28;20073;-70
2021/05/05 08:22:52;;;;;;;9.60;1.80;;;;;;;9.63;43.88;98295.84;4992942;28;20050;-67
2021/05/05 08:25:18;;;;;;;4.95;1.88;;;;;;;9.77;43.69;98301.28;5021557;28;20319;-69
2021/05/05 08:27:46;;;;;;;5.45;1.80;;;;;;;9.71;43.92;98292.41;5022531;28;20065;-69
2021/05/05 08:30:15;;;;;;;7.22;1.83;;;;;;;9.82;43.24;98308.53;5013644;28;20049;-68
2021/05/05 08:32:42;;;;;;;8.70;1.90;;;;;;;9.97;42.75;98297.28;5013937;28;20068;-68
2021/05/05 08:35:09;;;;;;;5.20;2.10;;;;;;;10.01;42.99;98316.59;5018460;28;20134;-68
2021/05/05 08:37:35;;;;;;;7.13;2.33;;;;;;;10.21;42.67;98236.13;5020169;28;20111;-68
2021/05/05 08:40:02;;;;;;;5.82;1.98;;;;;;;10.14;42.93;98318.50;5026834;28;20061;-66
2021/05/05 08:42:29;;;;;;;3.42;1.30;;;;;;;9.83;43.32;98285.59;4999929;28;20507;-68
2021/05/05 08:44:56;;;;;;;3.00;1.40;;;;;;;10.05;43.44;98312.94;5013769;28;20487;-68
2021/05/05 08:47:23;;;;;;;6.22;1.98;;;;;;;9.88;43.57;98310.06;5029481;28;20068;-68
2021/05/05 08:49:49;;;;;;;8.18;2.28;;;;;;;10.37;43.46;98304.84;5027358;28;20443;-66
2021/05/05 08:52:15;;;;;;;7.72;2.00;;;;;;;11.01;42.58;98290.16;5022529;28;20103;-69
2021/05/05 08:54:41;;;;;;;34.80;2.55;;;;;;;11.37;42.24;98315.72;5008830;28;20445;-70
2021/05/05 08:57:07;;;;;;;6.72;2.03;;;;;;;11.58;41.91;98320.63;5008777;28;20073;-69
2021/05/05 08:59:33;;;;;;;6.60;1.60;;;;;;;11.18;42.70;98327.72;5014748;28;20135;-69
2021/05/05 09:02:02;;;;;;;13.75;2.70;;;;;;;10.93;42.42;98340.13;5007818;28;20061;-70
2021/05/05 09:04:28;;;;;;;6.53;2.33;;;;;;;10.64;42.59;98331.28;5013532;28;20136;-68
2021/05/05 09:06:55;;;;;;;11.60;2.35;;;;;;;10.78;42.49;98333.16;5039663;28;20183;-68
2021/05/05 09:09:37;;;;;;;6.00;1.85;;;;;;;10.58;42.74;98329.00;5009965;28;20069;-67
2021/05/05 09:12:18;;;;;;;8.52;3.33;;;;;;;11.10;42.17;98330.41;5012453;28;20041;-68
2021/05/05 09:14:58;;;;;;;4.60;1.77;;;;;;;11.53;41.25;98329.78;5025802;28;20410;-68
2021/05/05 09:17:27;;;;;;;8.35;1.83;;;;;;;11.53;41.47;98318.03;5021654;28;20061;-68
2021/05/05 09:20:11;;;;;;;7.25;2.00;;;;;;;12.04;40.59;98304.78;5026646;28;20049;-69
2021/05/05 09:22:50;;;;;;;5.10;1.70;;;;;;;12.18;41.08;98319.16;5009029;28;20466;-69
2021/05/05 09:25:20;;;;;;;7.03;1.48;;;;;;;12.11;41.23;98304.31;5009677;28;20049;-66
2021/05/05 09:28:06;;;;;;;7.20;2.17;;;;;;;12.47;41.22;98320.44;5023510;28;20536;-67
2021/05/05 09:30:33;;;;;;;8.55;2.28;;;;;;;12.36;41.37;98310.13;5032969;28;20141;-68
2021/05/05 09:33:00;;;;;;;6.20;1.88;;;;;;;12.47;41.19;98312.22;5029629;28;20041;-69
2021/05/05 09:35:30;;;;;;;5.10;1.65;;;;;;;12.82;40.21;98305.88;5015541;28;20046;-69
2021/05/05 09:37:58;;;;;;;6.35;1.70;;;;;;;13.07;40.02;98314.34;5009324;28;20246;-66
2021/05/05 09:40:24;;;;;;;14.95;2.35;;;;;;;13.14;39.91;98311.09;5027603;28;20152;-68
2021/05/05 09:42:50;;;;;;;4.40;1.90;;;;;;;12.64;40.63;98346.22;5050175;28;20495;-67
2021/05/05 09:45:16;;;;;;;5.05;1.70;;;;;;;12.15;40.17;98318.97;5051019;28;20044;-67
2021/05/05 09:47:47;;;;;;;5.65;1.65;;;;;;;12.08;40.16;98308.50;5031848;28;20522;-67
2021/05/05 09:50:32;;;;;;;9.80;1.90;;;;;;;12.54;39.39;98311.72;5019995;28;20050;-68
2021/05/05 09:53:16;;;;;;;5.60;1.70;;;;;;;13.07;39.35;98316.31;5029721;28;20038;-68
2021/05/05 09:55:42;;;;;;;7.55;1.90;;;;;;;13.28;39.39;98310.91;5019988;28;20062;-68
2021/05/05 09:58:24;;;;;;;4.40;1.60;;;;;;;12.96;39.57;98313.91;5024130;28;20034;-68
2021/05/05 10:01:10;;;;;;;5.28;1.67;;;;;;;12.55;39.35;98296.06;5015795;28;20422;-68
2021/05/05 10:03:37;;;;;;;8.70;1.88;;;;;;;12.74;39.33;98313.00;5025559;28;20070;-67
2021/05/05 10:06:18;;;;;;;4.43;1.73;;;;;;;12.25;40.06;98302.22;5016510;28;20141;-67
2021/05/05 10:08:50;;;;;;;4.97;1.70;;;;;;;12.37;40.62;98314.47;5013458;28;20038;-68
2021/05/05 10:11:20;;;;;;;6.30;1.95;;;;;;;12.73;40.19;98322.34;5014325;28;20423;-67
2021/05/05 10:13:51;;;;;;;3.83;1.67;;;;;;;12.71;39.86;98286.19;5027118;28;20052;-68
2021/05/05 10:16:21;;;;;;;4.97;1.52;;;;;;;13.32;39.34;98318.13;5018479;28;20418;-67
2021/05/05 10:18:48;;;;;;;12.38;1.90;;;;;;;13.62;39.07;98320.13;5024455;28;20175;-68
2021/05/05 10:21:15;;;;;;;5.67;1.60;;;;;;;13.29;38.42;98323.50;5026870;28;20518;-68
2021/05/05 10:23:43;;;;;;;3.13;1.50;;;;;;;13.19;38.66;98317.22;5021258;28;20315;-69
2021/05/05 10:26:11;;;;;;;4.18;1.58;;;;;;;12.71;39.24;98332.81;5020120;28;20041;-66
2021/05/05 10:28:39;;;;;;;9.07;2.15;;;;;;;12.91;39.85;98336.03;5020389;28;20072;-68
2021/05/05 10:31:08;;;;;;;7.57;2.10;;;;;;;13.27;39.49;98336.75;5022346;28;20038;-69
2021/05/05 10:33:37;;;;;;;9.77;2.03;;;;;;;13.20;39.10;98323.53;5024844;28;20123;-68
2021/05/05 10:36:33;;;;;;;14.02;2.10;;;;;;;13.39;39.15;98331.34;5018731;28;20051;-69
2021/05/05 10:39:04;;;;;;;6.77;1.87;;;;;;;13.44;39.52;98331.22;5022411;28;20466;-70
2021/05/05 10:41:31;;;;;;;13.93;1.75;;;;;;;13.44;39.55;98331.22;5016571;28;20511;-68
2021/05/05 10:43:58;;;;;;;10.32;1.67;;;;;;;13.43;39.59;98328.75;5002302;28;20049;-68
2021/05/05 10:46:27;;;;;;;8.25;1.95;;;;;;;13.37;39.70;98341.06;5013447;28;20077;-68
2021/05/05 10:49:05;;;;;;;4.68;1.80;;;;;;;13.11;40.23;98318.06;5043183;28;20154;-67
2021/05/05 10:52:00;;;;;;;4.68;1.80;;;;;;;12.92;40.60;98326.66;5023090;28;20136;-67
2021/05/05 10:54:52;;;;;;;7.70;1.95;;;;;;;13.33;40.49;98332.66;5018761;28;20049;-69
2021/05/05 10:57:19;;;;;;;8.70;1.85;;;;;;;13.27;40.67;98329.28;5009487;28;20133;-68
2021/05/05 11:00:07;;;;;;;5.03;1.85;;;;;;;13.39;40.43;98331.34;5017853;28;20108;-66
2021/05/05 11:02:47;;;;;;;7.20;2.17;;;;;;;13.52;40.40;98323.25;5020858;28;20129;-68
2021/05/05 11:05:14;;;;;;;8.10;1.95;;;;;;;13.45;39.95;98316.34;5018345;28;20041;-68
2021/05/05 11:07:47;;;;;;;7.03;1.75;;;;;;;13.74;39.87;98322.97;5019418;28;20141;-68
2021/05/05 11:10:45;;;;;;;11.73;2.60;;;;;;;13.93;39.66;98310.75;5010498;28;20505;-70
2021/05/05 11:13:41;;;;;;;10.30;2.00;;;;;;;13.93;39.57;98315.41;5019343;28;20049;-70
2021/05/05 11:16:08;;;;;;;7.43;1.80;;;;;;;14.03;39.67;98318.56;5019651;28;20058;-68
2021/05/05 11:18:45;;;;;;;15.98;2.08;;;;;;;14.20;39.60;98305.06;5035840;28;20041;-67
2021/05/05 11:21:40;;;;;;;10.85;2.10;;;;;;;14.25;39.48;98313.91;5031804;28;20050;-69
2021/05/05 11:24:36;;;;;;;20.30;2.10;;;;;;;14.36;39.46;98319.78;5035586;28;20061;-69
2021/05/05 11:27:05;;;;;;;5.75;1.90;;;;;;;14.27;39.99;98322.63;4936390;28;20051;-66
2021/05/05 11:29:40;;;;;;;7.65;2.22;;;;;;;14.27;40.21;98325.38;5032546;28;20053;-66
2021/05/05 11:32:09;;;;;;;6.53;2.20;;;;;;;14.22;40.31;98320.06;5035331;28;20104;-65
2021/05/05 11:34:37;;;;;;;7.82;2.17;;;;;;;13.97;39.81;98281.44;5033760;28;20052;-69
2021/05/05 11:37:13;;;;;;;9.43;2.13;;;;;;;14.04;39.84;98328.41;5019207;28;20104;-67
2021/05/05 11:39:41;;;;;;;5.93;2.10;;;;;;;14.12;40.02;98317.72;5023332;28;20048;-67
2021/05/05 11:42:13;;;;;;;7.32;2.20;;;;;;;14.17;39.98;98323.81;5030237;28;20525;-69
2021/05/05 11:44:42;;;;;;;9.10;2.17;;;;;;;13.97;40.47;98332.84;5049114;28;20107;-68
2021/05/05 11:47:10;;;;;;;8.50;2.13;;;;;;;13.63;41.21;98327.25;5050163;28;20126;-69
2021/05/05 11:49:38;;;;;;;11.30;2.30;;;;;;;13.63;40.79;98329.97;5012418;28;20140;-69
2021/05/05 11:52:26;;;;;;;8.70;2.10;;;;;;;13.66;41.17;98331.25;5016886;28;20042;-70
2021/05/05 11:54:56;;;;;;;11.85;2.10;;;;;;;13.39;40.88;98325.06;5011527;28;20150;-68
2021/05/05 11:57:24;;;;;;;8.48;1.77;;;;;;;13.45;41.38;98323.75;5012896;28;20061;-68